createdAt,value
2022-11-03T00:02:05.239Z,96123.00
2022-11-03T00:07:33.239Z,96116.00
2022-11-03T00:13:00.970Z,96106.00
2022-11-03T00:18:28.772Z,96105.00
2022-11-03T00:23:56.798Z,96096.00
2022-11-03T00:29:27.270Z,96088.00
2022-11-03T00:34:56.386Z,96076.00
2022-11-03T00:40:24.155Z,96081.00
2022-11-03T00:45:52.371Z,96073.00
2022-11-03T00:51:26.091Z,96067.00
2022-11-03T00:56:53.858Z,96062.00
2022-11-03T01:02:21.832Z,96048.00
2022-11-03T01:07:49.732Z,96042.00
2022-11-03T01:13:17.542Z,96034.00
2022-11-03T01:18:45.323Z,96035.00
2022-11-03T01:24:13.111Z,96018.00
2022-11-03T01:29:41.632Z,96013.00
2022-11-03T01:35:09.493Z,96011.00
2022-11-03T01:40:37.294Z,96020.00
2022-11-03T01:46:10.920Z,96020.00
2022-11-03T01:51:39.598Z,96018.00
2022-11-03T01:57:16.814Z,96006.00
2022-11-03T02:02:45.571Z,95995.00
2022-11-03T02:08:23.912Z,95997.00
2022-11-03T02:13:52.011Z,95980.00
2022-11-03T02:19:37.901Z,95980.00
2022-11-03T02:25:33.138Z,95964.00
2022-11-03T02:31:16.902Z,95963.00
2022-11-03T02:36:56.680Z,95954.00
2022-11-03T02:42:25.533Z,95960.00
2022-11-03T02:47:59.193Z,95953.00
2022-11-03T02:53:30.450Z,95950.00
2022-11-03T02:59:10.186Z,95943.00
2022-11-03T03:04:55.150Z,95932.00
2022-11-03T03:10:28.115Z,95916.00
2022-11-03T03:16:24.929Z,95915.00
2022-11-03T03:21:57.781Z,95909.00
2022-11-03T03:27:29.050Z,95899.00
2022-11-03T03:32:59.407Z,95888.00
2022-11-03T03:38:35.737Z,95887.00
2022-11-03T03:44:08.362Z,95887.00
2022-11-03T03:49:36.245Z,95894.00
2022-11-03T03:55:12.520Z,95901.00
2022-11-03T04:00:42.869Z,95892.00
2022-11-03T04:06:10.671Z,95881.00
2022-11-03T04:11:57.313Z,95866.00
2022-11-03T04:17:43.417Z,95864.00
2022-11-03T04:23:11.354Z,95856.00
2022-11-03T04:28:39.183Z,95859.00
2022-11-03T04:34:12.988Z,95858.00
2022-11-03T04:39:41.561Z,95851.00
2022-11-03T04:45:32.293Z,95837.00
2022-11-03T04:51:03.173Z,95828.00
2022-11-03T04:56:31.164Z,95819.00
2022-11-03T05:01:59.608Z,95816.00
2022-11-03T05:07:36.855Z,95811.00
2022-11-03T05:13:17.051Z,95798.00
2022-11-03T05:18:48.997Z,95782.00
2022-11-03T05:24:19.522Z,95780.00
2022-11-03T05:29:48.511Z,95774.00
2022-11-03T05:35:23.763Z,95775.00
2022-11-03T05:40:54.339Z,95783.00
2022-11-03T05:46:22.315Z,95778.00
2022-11-03T05:51:50.400Z,95770.00
2022-11-03T05:57:19.070Z,95748.00
2022-11-03T06:02:49.783Z,95753.00
2022-11-03T06:08:34.678Z,95756.00
2022-11-03T06:14:13.496Z,95745.00
2022-11-03T06:19:49.790Z,95749.00
2022-11-03T06:25:37.580Z,95757.00
2022-11-03T06:31:29.383Z,95754.00
2022-11-03T06:36:59.502Z,95762.00
2022-11-03T06:42:32.338Z,95749.00
2022-11-03T06:48:01.416Z,95747.00
2022-11-03T06:53:34.067Z,95738.00
2022-11-03T06:59:01.957Z,95745.00
2022-11-03T07:04:30.817Z,95738.00
2022-11-03T07:09:58.587Z,95728.00
2022-11-03T07:15:32.201Z,95725.00
2022-11-03T07:21:26.987Z,95719.00
2022-11-03T07:27:13.060Z,95711.00
2022-11-03T07:32:40.811Z,95719.00
2022-11-03T07:38:19.351Z,95724.00
2022-11-03T07:43:56.357Z,95720.00
2022-11-03T07:49:30.288Z,95715.00
2022-11-03T07:54:59.851Z,95711.00
2022-11-03T08:00:27.545Z,95705.00
2022-11-03T08:05:55.525Z,95700.00
2022-11-03T08:11:27.904Z,95676.00
2022-11-03T08:16:57.339Z,95663.00
2022-11-03T08:22:26.208Z,95652.00
2022-11-03T08:27:54.261Z,95641.00
2022-11-03T08:33:22.151Z,95636.00
2022-11-03T08:38:50.986Z,95618.00
2022-11-03T08:44:19.177Z,95619.00
2022-11-03T08:49:46.949Z,95605.00
2022-11-03T08:55:14.836Z,95605.00
2022-11-03T09:00:42.848Z,95601.00
2022-11-03T09:06:10.963Z,95596.00
2022-11-03T09:11:38.759Z,95588.00
2022-11-03T09:17:07.314Z,95583.00
2022-11-03T09:22:35.087Z,95580.00
2022-11-03T09:28:02.951Z,95571.00
2022-11-03T09:33:30.929Z,95548.00
2022-11-03T09:38:58.752Z,95548.00
2022-11-03T09:44:27.123Z,95535.00
2022-11-03T09:49:55.212Z,95536.00
2022-11-03T09:55:26.974Z,95545.00
2022-11-03T10:00:54.820Z,95540.00
2022-11-03T10:06:23.942Z,95538.00
2022-11-03T10:11:54.348Z,95522.00
2022-11-03T10:17:27.359Z,95508.00
2022-11-03T10:22:55.839Z,95495.00
2022-11-03T10:28:28.693Z,95496.00
2022-11-03T10:33:56.749Z,95483.00
2022-11-03T10:39:31.219Z,95484.00
2022-11-03T10:45:20.473Z,95481.00
2022-11-03T10:50:48.297Z,95472.00
2022-11-03T10:56:16.566Z,95463.00
2022-11-03T11:01:44.689Z,95450.00
2022-11-03T11:07:27.270Z,95450.00
2022-11-03T11:13:21.869Z,95443.00
2022-11-03T11:18:55.383Z,95436.00
2022-11-03T11:24:44.959Z,95436.00
2022-11-03T11:30:22.250Z,95444.00
2022-11-03T11:35:55.210Z,95440.00
2022-11-03T11:42:14.702Z,95438.00
2022-11-03T11:47:48.021Z,95427.00
2022-11-03T11:53:24.005Z,95419.00
2022-11-03T11:58:55.582Z,95425.00
2022-11-03T12:04:28.126Z,95415.00
2022-11-03T12:09:55.978Z,95396.00
2022-11-03T12:15:56.693Z,95385.00
2022-11-03T12:21:50.278Z,95398.00
2022-11-03T12:27:25.582Z,95386.00
2022-11-03T12:32:53.524Z,95383.00
2022-11-03T12:38:21.540Z,95376.00
2022-11-03T12:43:51.446Z,95366.00
2022-11-03T12:49:19.502Z,95368.00
2022-11-03T12:54:47.467Z,95363.00
2022-11-03T13:00:16.156Z,95345.00
2022-11-03T13:05:44.052Z,95330.00
2022-11-03T13:11:30.716Z,95324.00
2022-11-03T13:16:58.661Z,95309.00
2022-11-03T13:22:26.487Z,95301.00
2022-11-03T13:27:54.837Z,95301.00
2022-11-03T13:33:22.960Z,95294.00
2022-11-03T13:38:50.709Z,95286.00
2022-11-03T13:44:18.536Z,95272.00
2022-11-03T13:50:13.179Z,95253.00
2022-11-03T14:01:09.062Z,95248.00
2022-11-03T14:06:36.926Z,95261.00
2022-11-03T14:12:23.658Z,95245.00
2022-11-03T14:17:51.425Z,95229.00
2022-11-03T14:23:19.312Z,95230.00
2022-11-03T14:28:47.022Z,95244.00
2022-11-03T14:34:14.964Z,95228.00
2022-11-03T14:39:42.983Z,95222.00
2022-11-03T14:45:11.095Z,95208.00
2022-11-03T14:50:38.883Z,95194.00
2022-11-03T14:56:07.033Z,95180.00
2022-11-03T15:01:36.619Z,95187.00
2022-11-03T15:07:04.811Z,95190.00
2022-11-03T15:12:32.610Z,95170.00
2022-11-03T15:18:03.034Z,95142.00
2022-11-03T15:30:24.253Z,95143.00
2022-11-03T15:35:52.818Z,95134.00
2022-11-03T15:41:23.568Z,95118.00
2022-11-03T15:46:51.303Z,95107.00
2022-11-03T15:52:19.154Z,95106.00
2022-11-03T15:57:50.082Z,95093.00
2022-11-03T16:03:28.279Z,95077.00
2022-11-03T16:14:37.712Z,95023.00
2022-11-03T16:20:06.685Z,95038.00
2022-11-03T16:25:35.956Z,95045.00
2022-11-03T16:31:04.834Z,95018.00
2022-11-03T16:36:40.100Z,95005.00
2022-11-03T16:42:08.225Z,94993.00
2022-11-03T16:47:35.968Z,94995.00
2022-11-03T16:53:03.920Z,94988.00
2022-11-03T16:58:31.788Z,94989.00
2022-11-03T17:03:59.864Z,94970.00
2022-11-03T17:09:27.676Z,94951.00
2022-11-03T17:14:56.941Z,94946.00
2022-11-03T17:20:25.083Z,94919.00
2022-11-03T17:25:53.009Z,94917.00
2022-11-03T17:31:21.147Z,94903.00
2022-11-03T17:36:49.061Z,94889.00
2022-11-03T17:42:24.878Z,94886.00
2022-11-03T17:47:52.944Z,94873.00
2022-11-03T17:53:31.400Z,94859.00
2022-11-03T17:58:59.360Z,94848.00
2022-11-03T18:04:27.238Z,94830.00
2022-11-03T18:09:56.329Z,94814.00
2022-11-03T18:15:26.117Z,94804.00
2022-11-03T18:20:54.674Z,94774.00
2022-11-03T18:26:25.755Z,94758.00
2022-11-03T18:31:53.717Z,94779.00
2022-11-03T18:37:21.457Z,94785.00
2022-11-03T18:42:49.209Z,94795.00
2022-11-03T18:48:21.184Z,94782.00
2022-11-03T18:53:49.136Z,94746.00
2022-11-03T18:59:25.852Z,94745.00
2022-11-03T19:04:54.411Z,94744.00
2022-11-03T19:10:22.643Z,94718.00
2022-11-03T19:15:51.628Z,94713.00
2022-11-03T19:21:24.463Z,94728.00
2022-11-03T19:27:02.496Z,94730.00
2022-11-03T19:32:39.836Z,94697.00
2022-11-03T19:38:14.723Z,94678.00
2022-11-03T19:43:42.888Z,94659.00
2022-11-03T19:49:15.243Z,94642.00
2022-11-03T19:54:47.336Z,94639.00
2022-11-03T20:00:17.749Z,94629.00
2022-11-03T20:05:49.585Z,94618.00
2022-11-03T20:11:18.880Z,94627.00
2022-11-03T20:16:46.696Z,94612.00
2022-11-03T20:22:18.330Z,94610.00
2022-11-03T20:27:46.238Z,94587.00
2022-11-03T20:33:17.408Z,94585.00
2022-11-03T20:38:59.370Z,94565.00
2022-11-03T20:44:27.243Z,94558.00
2022-11-03T20:49:55.311Z,94556.00
2022-11-03T20:55:26.629Z,94540.00
2022-11-03T21:00:54.338Z,94525.00
2022-11-03T21:06:22.383Z,94518.00
2022-11-03T21:11:52.632Z,94501.00
2022-11-03T21:17:38.762Z,94497.00
2022-11-03T21:23:23.934Z,94490.00
2022-11-03T21:28:52.278Z,94474.00
2022-11-03T21:34:22.377Z,94467.00
2022-11-03T21:39:50.128Z,94465.00
2022-11-03T21:45:18.837Z,94456.00
2022-11-03T21:50:46.956Z,94454.00
2022-11-03T21:56:15.767Z,94473.00
2022-11-03T22:01:44.044Z,94467.00
2022-11-03T22:07:12.314Z,94472.00
2022-11-03T22:12:40.472Z,94460.00
2022-11-03T22:18:08.729Z,94459.00
2022-11-03T22:23:55.130Z,94466.00
2022-11-03T22:29:41.752Z,94469.00
2022-11-03T22:35:30.474Z,94468.00
2022-11-03T22:41:16.796Z,94481.00
2022-11-03T22:46:44.530Z,94485.00
2022-11-03T22:52:13.862Z,94501.00
2022-11-03T22:57:43.273Z,94490.00
2022-11-03T23:03:11.605Z,94488.00
2022-11-03T23:08:41.831Z,94528.00
2022-11-03T23:14:11.688Z,94586.00
2022-11-03T23:19:57.874Z,94589.00
2022-11-03T23:25:25.866Z,94622.00
2022-11-03T23:30:53.686Z,94629.00
2022-11-03T23:36:21.488Z,94644.00
2022-11-03T23:41:51.324Z,94647.00
2022-11-03T23:47:37.473Z,94646.00
2022-11-03T23:53:05.236Z,94683.00
2022-11-03T23:58:33.004Z,94702.00
